메인 페이지
METAR-TAF:

METAR-TAF

공항 :

Pittsfield Municipal Airport

피츠필드, 매사추세츠, 미국

위도: 42-25-38N, 경도: 073-17-21W, 고도: 364m

현재 날씨관측

예보는 25분 전, 18:54시(UTC)에 발표되었습니다.
서북서21kt, 순간 최대 풍속 33kt
온도 3°C
습도 75%
기압 1012 hPa
시정: 16.1km
고도 2000ft 상공 구름 많음
고도 2600ft 상공 흐림

METAR: KPSF 231854Z AUTO 30021G33KT 10SM BKN020 OVC026 03/M01 A2988 RMK AO2 PK WND 29033/1852 SLP118 T00281006

시각: 14:19 (19:19 UTC)

예보

예보는 16분 전, 19:03시(UTC)에 발표되었습니다.
예보 대상 시간: 23일 19시부터 24일 18시까지 (UTC)
서북서19kt, 순간 최대 풍속 30kt
시정: 10km
고도 4000ft 상공 구름 많음
일시적
23일 19시부터 23일 20시까지 (UTC)
고도 2000ft 상공 구름 많음
24일 0200시부터 (UTC)
서북서11kt, 순간 최대 풍속 20kt
시정: 10km
고도 3000ft 상공 구름 보통
24일 0700시부터 (UTC)
서북서10kt
시정: 10km
고도 25000ft 상공 구름 보통

TAF: KPSF 231903Z 2319/2418 29019G30KT P6SM BKN040 TEMPO 2319/2320 BKN020 FM240200 30011G20KT P6SM SCT030 FM240700 30010KT P6SM SCT250

4,000개 이상의 공항 관측 자료 및 예보 (METAR 및 TAF 보고).

지도상에서 검색 가능한 기상관측소가 노란 점과 빨간 점으로 표시되어 있습니다.

기상관측소 명을 보려면 표시 위로 마우스를 이동하세요.

날씨 관측과 예보를 보려면 클릭하세요.

지도 변경 : 확대하려면 엑스 표시가 있는 녹색 버튼, 축소하려면 빼기 표시가 있는 녹색 버튼, 다음 페이지의 지도를 보려면 녹색 화살표를 클릭하세요.


METAR-TAF: